»·PEaware :: SWA256 KPHX-KSNA

SWA256 :: KPHX-KSNA

FLIGHT INFORMATION

Flight Status: Arrived
Operator:
Southwest Airlines
More flights by this operator :: More flights under this callsign
Pilot: Ryan L. (28399)
Aircraft: BOEING 737-800
(B738)
More flights by this aircraft type
Origin: KPHX Phoenix Sky Harbor Intl
United States
Destination: KSNA John Wayne-Orange Co
United States
More flights between these airports :: More routes between these airports
Route: KEENS2 HRRBR EMLLD DSNEE4
File this flight plan on PilotEdge
Remarks:
Altitude:
(Current/Filed)
28,000ft
Speed:
(Current/Filed)
430kts
Departed: 30-Jul-20 12:58 PM
Arrived: 30-Jul-20 01:53 PM
Distance/Time
Traveled:
293nm/0:54
Distance/Time
To Go:
Arrived

Flight Plot

Page will automatically refresh every two minutes.


Map Options




Map Legend


Flown Route
Filed Route
Departure Airport
Arrival Airport
Navaid (VOR, NDB)
Fix

Horizontal Profiles

Position Reports

Time Latitude Longitude Heading Altitude Ground
Speed
30-Jul-20 12:47 33.437370 -112.008253 270 1127ft 0kts
30-Jul-20 12:48 33.437370 -112.008253 270 1127ft 0kts
30-Jul-20 12:49 33.437370 -112.008253 270 1127ft 0kts
30-Jul-20 12:50 33.437370 -112.008253 270 1127ft 0kts
30-Jul-20 12:51 33.437370 -112.008287 270 1127ft 0kts
30-Jul-20 12:52 33.437374 -112.008075 269 1127ft 2kts
30-Jul-20 12:53 33.437235 -112.007403 328 1127ft 2kts
30-Jul-20 12:54 33.437081 -112.007335 2 1127ft 0kts
30-Jul-20 12:55 33.437081 -112.007335 2 1127ft 0kts
30-Jul-20 12:56 33.437299 -112.007323 2 1127ft 9kts
30-Jul-20 12:57 33.438952 -111.994895 90 1135ft 56kts
30-Jul-20 12:58 33.439633 -111.992449 2 1136ft 0kts
30-Jul-20 12:59 33.440549 -111.992430 334 1137ft 15kts
30-Jul-20 13:00 33.441387 -112.029069 271 1620ft 186kts
30-Jul-20 13:01 33.421922 -112.097549 250 3573ft 236kts
30-Jul-20 13:02 33.398348 -112.172102 251 5637ft 248kts
30-Jul-20 13:03 33.399883 -112.260296 281 8314ft 286kts
30-Jul-20 13:04 33.414154 -112.356343 281 10930ft 306kts
30-Jul-20 13:05 33.429701 -112.461582 282 13687ft 334kts
30-Jul-20 13:06 33.446322 -112.574815 282 16420ft 353kts
30-Jul-20 13:07 33.451075 -112.674030 273 18614ft 365kts
30-Jul-20 13:08 33.453569 -112.797938 280 20906ft 378kts
30-Jul-20 13:09 33.477361 -112.931033 283 22089ft 405kts
30-Jul-20 13:10 33.502947 -113.068619 282 24657ft 406kts
30-Jul-20 13:11 33.527224 -113.200015 282 27122ft 399kts
30-Jul-20 13:13 33.551802 -113.333645 282 27919ft 431kts
30-Jul-20 13:14 33.578815 -113.481548 282 27983ft 469kts
30-Jul-20 13:15 33.606997 -113.633286 282 27909ft 466kts
30-Jul-20 13:16 33.635277 -113.785786 282 27909ft 466kts
30-Jul-20 13:17 33.663224 -113.937514 282 27908ft 466kts
30-Jul-20 13:18 33.691117 -114.089152 282 27908ft 466kts
30-Jul-20 13:19 33.719432 -114.243140 282 27907ft 466kts
30-Jul-20 13:20 33.747467 -114.395662 282 27906ft 466kts
30-Jul-20 13:21 33.775638 -114.548324 284 27901ft 466kts
30-Jul-20 13:22 33.805917 -114.699294 282 27952ft 466kts
30-Jul-20 13:23 33.834525 -114.851248 282 27909ft 466kts
30-Jul-20 13:24 33.856624 -115.008187 277 27908ft 466kts
30-Jul-20 13:25 33.873749 -115.162913 277 27908ft 467kts
30-Jul-20 13:26 33.890727 -115.318474 276 27896ft 467kts
30-Jul-20 13:27 33.907426 -115.473168 276 27879ft 466kts
30-Jul-20 13:28 33.923971 -115.628296 276 27881ft 466kts
30-Jul-20 13:29 33.935732 -115.783746 274 27900ft 466kts
30-Jul-20 13:30 33.946692 -115.939525 274 27916ft 466kts
30-Jul-20 13:30 33.955822 -116.071515 274 27928ft 466kts
30-Jul-20 13:31 33.960964 -116.228461 263 27429ft 460kts
30-Jul-20 13:33 33.940410 -116.400075 261 24572ft 405kts
30-Jul-20 13:33 33.927016 -116.508133 261 21708ft 386kts
30-Jul-20 13:34 33.910641 -116.636509 260 18740ft 391kts
30-Jul-20 13:35 33.894590 -116.761591 261 15680ft 372kts
30-Jul-20 13:36 33.881026 -116.885506 261 13050ft 369kts
30-Jul-20 13:37 33.868109 -117.003332 260 11980ft 328kts
30-Jul-20 13:38 33.855909 -117.112973 259 9944ft 328kts
30-Jul-20 13:39 33.843813 -117.220654 260 8052ft 318kts
30-Jul-20 13:40 33.833027 -117.316602 260 7938ft 259kts
30-Jul-20 13:41 33.824063 -117.395602 260 8151ft 236kts
30-Jul-20 13:42 33.820299 -117.470373 272 7338ft 215kts
30-Jul-20 13:43 33.822705 -117.539889 272 5402ft 193kts
30-Jul-20 13:44 33.824166 -117.602305 284 4998ft 191kts
30-Jul-20 13:45 33.842395 -117.660762 290 4445ft 176kts
30-Jul-20 13:46 33.859748 -117.715838 290 3024ft 171kts
30-Jul-20 13:47 33.836440 -117.763428 218 3005ft 178kts
30-Jul-20 13:48 33.795410 -117.792684 210 2515ft 157kts
30-Jul-20 13:49 33.757881 -117.816710 208 1716ft 141kts
30-Jul-20 13:50 33.723948 -117.838251 207 1007ft 133kts
30-Jul-20 13:51 33.691389 -117.858777 206 305ft 131kts
30-Jul-20 13:52 33.668119 -117.873379 173 64ft 26kts
30-Jul-20 13:53 33.674706 -117.865892 29 64ft 29kts

Navigation Log

Ident Type
Flight plan parsing failed, navigation log unavailable